createdAt,value
2018-01-02T00:00:12.759Z,993.90
2018-01-02T00:01:12.741Z,993.96
2018-01-02T00:02:12.715Z,993.95
2018-01-02T00:03:12.702Z,994.02
2018-01-02T00:04:12.740Z,993.99
2018-01-02T00:05:12.770Z,994.03
2018-01-02T00:06:12.681Z,994.02
2018-01-02T00:07:12.692Z,994.09
2018-01-02T00:08:12.658Z,994.07
2018-01-02T00:09:12.666Z,994.10
2018-01-02T00:10:12.650Z,994.09
2018-01-02T00:11:12.621Z,994.16
2018-01-02T00:12:12.690Z,994.18
2018-01-02T00:13:12.612Z,994.16
2018-01-02T00:14:12.600Z,994.16
2018-01-02T00:15:12.577Z,994.21
2018-01-02T00:16:12.576Z,994.20
2018-01-02T00:17:13.130Z,994.15
2018-01-02T00:18:12.546Z,994.23
2018-01-02T00:19:12.546Z,994.22
2018-01-02T00:20:12.531Z,994.25
2018-01-02T00:21:12.526Z,994.25
2018-01-02T00:22:12.527Z,994.31
2018-01-02T00:23:12.571Z,994.31
2018-01-02T00:24:12.500Z,994.35
2018-01-02T00:25:12.472Z,994.32
2018-01-02T00:26:12.481Z,994.38
2018-01-02T00:27:12.498Z,994.40
2018-01-02T00:28:12.471Z,994.41
2018-01-02T00:29:12.432Z,994.46
2018-01-02T00:30:12.421Z,994.47
2018-01-02T00:31:12.416Z,994.50
2018-01-02T00:32:12.399Z,994.43
2018-01-02T00:33:12.402Z,994.51
2018-01-02T00:34:12.376Z,994.49
2018-01-02T00:35:12.374Z,994.58
2018-01-02T00:36:12.366Z,994.63
2018-01-02T00:37:12.343Z,994.60
2018-01-02T00:38:12.334Z,994.66
2018-01-02T00:39:12.329Z,994.66
2018-01-02T00:40:12.337Z,994.67
2018-01-02T00:41:12.358Z,994.70
2018-01-02T00:42:12.293Z,994.75
2018-01-02T00:43:12.292Z,994.75
2018-01-02T00:44:12.273Z,994.74
2018-01-02T00:45:12.274Z,994.80
2018-01-02T00:46:12.246Z,994.75
2018-01-02T00:47:12.285Z,994.78
2018-01-02T00:48:12.246Z,994.87
2018-01-02T00:49:12.218Z,994.85
2018-01-02T00:50:12.221Z,994.90
2018-01-02T00:51:12.200Z,994.94
2018-01-02T00:52:12.181Z,994.90
2018-01-02T00:53:12.171Z,994.99
2018-01-02T00:54:12.171Z,994.97
2018-01-02T00:55:12.151Z,994.99
2018-01-02T00:56:12.147Z,995.03
2018-01-02T00:57:12.159Z,995.01
2018-01-02T00:58:12.117Z,995.04
2018-01-02T00:59:12.116Z,995.09
2018-01-02T01:00:12.095Z,995.10
2018-01-02T01:01:12.124Z,995.12
2018-01-02T01:02:12.132Z,995.15
2018-01-02T01:03:12.066Z,995.15
2018-01-02T01:04:12.056Z,995.15
2018-01-02T01:05:12.040Z,995.20
2018-01-02T01:06:12.033Z,995.23
2018-01-02T01:07:12.018Z,995.23
2018-01-02T01:08:12.010Z,995.23
2018-01-02T01:09:11.998Z,995.27
2018-01-02T01:10:12.004Z,995.30
2018-01-02T01:11:11.979Z,995.31
2018-01-02T01:12:11.968Z,995.27
2018-01-02T01:13:11.954Z,995.34
2018-01-02T01:14:11.948Z,995.36
2018-01-02T01:15:11.934Z,995.41
2018-01-02T01:16:11.939Z,995.43
2018-01-02T01:17:11.917Z,995.45
2018-01-02T01:18:11.911Z,995.51
2018-01-02T01:19:11.903Z,995.48
2018-01-02T01:20:11.878Z,995.52
2018-01-02T01:21:12.648Z,995.54
2018-01-02T01:22:11.860Z,995.56
2018-01-02T01:23:11.857Z,995.60
2018-01-02T01:24:11.847Z,995.58
2018-01-02T01:25:11.872Z,995.63
2018-01-02T01:26:11.823Z,995.64
2018-01-02T01:27:11.830Z,995.70
2018-01-02T01:29:45.050Z,995.73
2018-01-02T01:30:45.004Z,995.74
2018-01-02T01:32:38.591Z,995.73
2018-01-02T01:33:38.555Z,995.76
2018-01-02T01:34:38.551Z,995.82
2018-01-02T01:35:38.533Z,995.80
2018-01-02T01:36:38.521Z,995.87
2018-01-02T01:37:38.510Z,995.86
2018-01-02T01:38:38.516Z,995.90
2018-01-02T01:39:38.488Z,995.93
2018-01-02T01:40:38.477Z,995.97
2018-01-02T01:41:38.480Z,996.00
2018-01-02T01:42:38.457Z,996.04
2018-01-02T01:43:38.444Z,996.04
2018-01-02T01:44:38.437Z,996.08
2018-01-02T01:45:38.424Z,996.09
2018-01-02T01:46:38.415Z,996.13
2018-01-02T01:47:38.403Z,996.07
2018-01-02T01:48:38.394Z,996.13
2018-01-02T01:49:38.383Z,996.17
2018-01-02T01:50:38.373Z,996.13
2018-01-02T01:51:38.392Z,996.17
2018-01-02T01:52:38.367Z,996.16
2018-01-02T01:53:38.960Z,996.17
2018-01-02T01:54:38.325Z,996.16
2018-01-02T01:55:38.319Z,996.19
2018-01-02T01:56:38.312Z,996.26
2018-01-02T01:57:38.316Z,996.25
2018-01-02T01:58:38.293Z,996.23
2018-01-02T01:59:38.281Z,996.28
2018-01-02T02:00:38.280Z,996.35
2018-01-02T02:01:38.297Z,996.33
2018-01-02T02:02:38.250Z,996.34
2018-01-02T02:03:38.240Z,996.37
2018-01-02T02:04:38.220Z,996.37
2018-01-02T02:05:38.215Z,996.39
2018-01-02T02:06:38.198Z,996.43
2018-01-02T02:07:38.229Z,996.39
2018-01-02T02:08:38.228Z,996.41
2018-01-02T02:09:38.171Z,996.43
2018-01-02T02:10:38.163Z,996.42
2018-01-02T02:11:38.151Z,996.48
2018-01-02T02:12:38.142Z,996.43
2018-01-02T02:13:38.144Z,996.48
2018-01-02T02:14:38.115Z,996.49
2018-01-02T02:15:38.110Z,996.46
2018-01-02T02:16:38.100Z,996.50
2018-01-02T02:17:38.953Z,996.53
2018-01-02T02:18:38.071Z,996.52
2018-01-02T02:19:38.060Z,996.54
2018-01-02T02:20:38.066Z,996.56
2018-01-02T02:21:38.083Z,996.56
2018-01-02T02:22:38.050Z,996.53
2018-01-02T02:23:38.019Z,996.56
2018-01-02T02:24:38.008Z,996.56
2018-01-02T02:25:37.996Z,996.54
2018-01-02T02:26:37.986Z,996.54
2018-01-02T02:27:37.977Z,996.55
2018-01-02T02:28:38.944Z,996.53
2018-01-02T02:29:37.954Z,996.57
2018-01-02T02:30:37.944Z,996.54
2018-01-02T02:31:37.940Z,996.54
2018-01-02T02:32:37.933Z,996.59
2018-01-02T02:33:37.911Z,996.62
2018-01-02T02:34:37.901Z,996.54
2018-01-02T02:35:37.908Z,996.58
2018-01-02T02:36:37.882Z,996.61
2018-01-02T02:37:37.888Z,996.53
2018-01-02T02:38:37.853Z,996.61
2018-01-02T02:39:37.846Z,996.63
2018-01-02T02:40:37.847Z,996.67
2018-01-02T02:41:39.462Z,996.61
2018-01-02T02:42:37.816Z,996.61
2018-01-02T02:43:37.802Z,996.61
2018-01-02T02:44:37.794Z,996.64
2018-01-02T02:45:37.783Z,996.66
2018-01-02T02:46:37.771Z,996.65
2018-01-02T02:47:37.759Z,996.65
2018-01-02T02:48:37.753Z,996.66
2018-01-02T02:49:37.739Z,996.72
2018-01-02T02:50:37.729Z,996.71
2018-01-02T02:51:37.720Z,996.74
2018-01-02T02:52:37.709Z,996.73
2018-01-02T02:53:37.696Z,996.79
2018-01-02T02:54:37.691Z,996.80
2018-01-02T02:55:37.674Z,996.74
2018-01-02T02:56:38.449Z,996.78
2018-01-02T02:57:37.653Z,996.83
2018-01-02T02:58:37.643Z,996.86
2018-01-02T02:59:37.632Z,996.84
2018-01-02T03:00:37.622Z,996.87
2018-01-02T03:01:37.608Z,996.87
2018-01-02T03:02:37.599Z,996.88
2018-01-02T03:03:37.598Z,996.90
2018-01-02T03:04:37.577Z,996.89
2018-01-02T03:05:38.446Z,996.88
2018-01-02T03:06:37.559Z,996.90
2018-01-02T03:07:37.550Z,996.95
2018-01-02T03:08:37.537Z,996.94
2018-01-02T03:09:38.453Z,996.96
2018-01-02T03:10:37.512Z,996.98
2018-01-02T03:11:37.522Z,996.99
2018-01-02T03:12:37.493Z,996.99
2018-01-02T03:13:37.478Z,997.05
2018-01-02T03:14:37.472Z,997.04
2018-01-02T03:15:37.459Z,997.03
2018-01-02T03:16:37.448Z,997.04
2018-01-02T03:17:37.448Z,997.09
2018-01-02T03:18:37.448Z,997.10
2018-01-02T03:19:37.431Z,997.01
2018-01-02T03:20:37.408Z,997.03
2018-01-02T03:21:37.395Z,997.06
2018-01-02T03:22:37.381Z,997.11
2018-01-02T03:23:37.371Z,997.12
2018-01-02T03:24:37.361Z,997.09
2018-01-02T03:25:37.384Z,997.08
2018-01-02T03:26:37.354Z,997.16
2018-01-02T03:27:37.345Z,997.11
2018-01-02T03:28:37.320Z,997.13
2018-01-02T03:29:37.310Z,997.07
2018-01-02T03:30:37.293Z,997.08
2018-01-02T03:31:37.281Z,997.06
2018-01-02T03:32:37.275Z,997.11
2018-01-02T03:33:37.277Z,997.13
2018-01-02T03:34:37.272Z,997.22
2018-01-02T03:35:37.246Z,997.22
2018-01-02T03:36:37.233Z,997.23
2018-01-02T03:37:37.216Z,997.22
2018-01-02T03:38:37.205Z,997.27
2018-01-02T03:39:37.195Z,997.34
2018-01-02T03:40:37.211Z,997.37
2018-01-02T03:41:37.941Z,997.33
2018-01-02T03:42:37.171Z,997.41
2018-01-02T03:43:37.166Z,997.41
2018-01-02T03:44:37.156Z,997.39
2018-01-02T03:45:38.941Z,997.47
2018-01-02T03:46:39.957Z,997.47
2018-01-02T03:47:38.944Z,997.42
2018-01-02T03:48:37.096Z,997.48
2018-01-02T03:49:37.086Z,997.50
2018-01-02T03:50:37.079Z,997.47
2018-01-02T03:51:37.073Z,997.51
2018-01-02T03:52:37.054Z,997.48
2018-01-02T03:53:37.964Z,997.52
2018-01-02T03:54:37.041Z,997.53
2018-01-02T03:55:45.048Z,997.51
2018-01-02T03:57:31.776Z,997.54
2018-01-02T03:58:31.731Z,997.52
2018-01-02T04:00:26.568Z,997.53
2018-01-02T04:01:26.518Z,997.54
2018-01-02T04:02:26.524Z,997.61
2018-01-02T04:03:26.509Z,997.59
2018-01-02T04:04:26.496Z,997.63
2018-01-02T04:05:26.478Z,997.62
2018-01-02T04:06:26.464Z,997.65
2018-01-02T04:07:26.462Z,997.61
2018-01-02T04:08:26.448Z,997.64
2018-01-02T04:09:26.434Z,997.68
2018-01-02T04:10:26.460Z,997.68
2018-01-02T04:11:26.412Z,997.74
2018-01-02T04:12:26.398Z,997.72
2018-01-02T04:13:26.390Z,997.73
2018-01-02T04:14:26.376Z,997.79
2018-01-02T04:15:26.372Z,997.72
2018-01-02T04:16:26.372Z,997.77
2018-01-02T04:17:26.342Z,997.73
2018-01-02T04:18:26.334Z,997.75
2018-01-02T04:19:26.340Z,997.75
2018-01-02T04:20:26.353Z,997.75
2018-01-02T04:21:26.310Z,997.79
2018-01-02T04:22:26.289Z,997.77
2018-01-02T04:23:26.280Z,997.79
2018-01-02T04:24:26.281Z,997.84
2018-01-02T04:25:26.265Z,997.79
2018-01-02T04:26:26.247Z,997.82
2018-01-02T04:27:26.235Z,997.82
2018-01-02T04:28:26.224Z,997.83
2018-01-02T04:29:26.215Z,997.87
2018-01-02T04:30:26.215Z,997.85
2018-01-02T04:31:26.192Z,997.88
2018-01-02T04:32:26.181Z,997.88
2018-01-02T04:33:26.169Z,997.89
2018-01-02T04:34:26.178Z,997.89
2018-01-02T04:35:26.145Z,997.90
2018-01-02T04:36:26.141Z,997.89
2018-01-02T04:37:26.131Z,997.96
2018-01-02T04:38:27.672Z,997.92
2018-01-02T04:39:26.128Z,997.95
2018-01-02T04:40:26.098Z,998.00
2018-01-02T04:41:26.084Z,998.00
2018-01-02T04:42:26.081Z,997.96
2018-01-02T04:43:26.133Z,997.97
2018-01-02T04:44:26.110Z,998.05
2018-01-02T04:45:26.054Z,998.04
2018-01-02T04:46:26.077Z,998.11
2018-01-02T04:47:26.049Z,998.15
2018-01-02T04:48:26.031Z,998.14
2018-01-02T04:49:25.994Z,998.22
2018-01-02T04:50:25.984Z,998.22
2018-01-02T04:51:25.996Z,998.22
2018-01-02T04:52:26.671Z,998.26
2018-01-02T04:53:25.955Z,998.29
2018-01-02T04:54:25.941Z,998.31
2018-01-02T04:55:26.935Z,998.37
2018-01-02T04:56:25.919Z,998.36
2018-01-02T04:57:27.669Z,998.32
2018-01-02T04:58:27.723Z,998.36
2018-01-02T04:59:25.893Z,998.40
2018-01-02T05:00:25.878Z,998.39
2018-01-02T05:01:25.877Z,998.41
2018-01-02T05:02:25.862Z,998.40
2018-01-02T05:03:25.846Z,998.41
2018-01-02T05:04:27.669Z,998.46
2018-01-02T05:05:25.823Z,998.42
2018-01-02T05:06:25.811Z,998.46
2018-01-02T05:07:25.811Z,998.49
2018-01-02T05:08:25.791Z,998.52
2018-01-02T05:09:26.672Z,998.57
2018-01-02T05:10:25.769Z,998.56
2018-01-02T05:11:25.761Z,998.60
2018-01-02T05:12:25.754Z,998.60
2018-01-02T05:13:25.769Z,998.63
2018-01-02T05:14:25.724Z,998.69
2018-01-02T05:15:25.758Z,998.67
2018-01-02T05:16:25.708Z,998.73
2018-01-02T05:17:25.692Z,998.72
2018-01-02T05:18:25.684Z,998.77
2018-01-02T05:19:25.673Z,998.78
2018-01-02T05:20:25.664Z,998.74
2018-01-02T05:21:32.171Z,998.80
2018-01-02T05:22:28.176Z,998.80
2018-01-02T05:23:25.630Z,998.77
2018-01-02T05:24:25.623Z,998.80
2018-01-02T05:25:25.625Z,998.84
2018-01-02T05:26:25.597Z,998.81
2018-01-02T05:27:26.169Z,998.86
2018-01-02T05:28:25.582Z,998.93
2018-01-02T05:29:25.571Z,998.89
2018-01-02T05:30:25.561Z,998.92
2018-01-02T05:31:25.543Z,998.96
2018-01-02T05:32:25.559Z,998.99
2018-01-02T05:33:25.529Z,999.01
2018-01-02T05:34:26.210Z,999.03
2018-01-02T05:35:26.198Z,998.98
2018-01-02T05:36:25.495Z,998.98
2018-01-02T05:37:25.480Z,998.97
2018-01-02T05:38:25.504Z,999.01
2018-01-02T05:39:25.465Z,999.01
2018-01-02T05:40:25.449Z,999.01
2018-01-02T05:41:25.439Z,999.04
2018-01-02T05:42:25.433Z,999.06
2018-01-02T05:43:25.424Z,999.07
2018-01-02T05:44:25.415Z,999.11
2018-01-02T05:45:25.414Z,999.06
2018-01-02T05:46:26.172Z,999.09
2018-01-02T05:47:25.384Z,999.12
2018-01-02T05:48:25.364Z,999.11
2018-01-02T05:49:25.381Z,999.15
2018-01-02T05:50:25.351Z,999.14
2018-01-02T05:51:26.177Z,999.18
2018-01-02T05:52:25.325Z,999.15
2018-01-02T05:53:25.311Z,999.17
2018-01-02T05:54:25.300Z,999.20
2018-01-02T05:55:25.314Z,999.18
2018-01-02T05:56:25.309Z,999.19
2018-01-02T05:57:25.271Z,999.20
2018-01-02T05:58:25.263Z,999.24
2018-01-02T05:59:25.249Z,999.27
2018-01-02T06:00:25.248Z,999.32
2018-01-02T06:01:25.238Z,999.30
2018-01-02T06:02:25.230Z,999.33
2018-01-02T06:03:25.211Z,999.37
2018-01-02T06:04:25.212Z,999.39
2018-01-02T06:05:25.185Z,999.41
2018-01-02T06:06:25.172Z,999.41
2018-01-02T06:07:25.190Z,999.49
2018-01-02T06:08:25.183Z,999.48
2018-01-02T06:09:25.149Z,999.52
2018-01-02T06:10:25.138Z,999.51
2018-01-02T06:11:25.116Z,999.53
2018-01-02T06:12:25.118Z,999.56
2018-01-02T06:13:25.114Z,999.59
2018-01-02T06:14:25.085Z,999.65
2018-01-02T06:15:25.081Z,999.66
2018-01-02T06:16:25.083Z,999.71
2018-01-02T06:17:25.674Z,999.71
2018-01-02T06:18:25.063Z,999.76
2018-01-02T06:19:25.035Z,999.74
2018-01-02T06:20:25.033Z,999.74
2018-01-02T06:21:25.007Z,999.76
2018-01-02T06:22:25.005Z,999.80
2018-01-02T06:23:24.991Z,999.78
2018-01-02T06:24:24.991Z,999.83
2018-01-02T06:25:24.971Z,999.84
2018-01-02T06:26:24.964Z,999.88
2018-01-02T06:27:24.948Z,999.91
2018-01-02T06:28:24.937Z,999.94
2018-01-02T06:29:24.944Z,999.95
2018-01-02T06:30:24.927Z,999.98
2018-01-02T06:31:24.904Z,999.99
2018-01-02T06:32:24.970Z,999.98
2018-01-02T06:33:24.884Z,999.98
2018-01-02T06:34:24.917Z,1000.04
2018-01-02T06:35:24.861Z,1000.02
2018-01-02T06:36:24.854Z,999.99
2018-01-02T06:37:24.841Z,1000.01
2018-01-02T06:38:24.867Z,1000.02
2018-01-02T06:39:24.814Z,1000.00
2018-01-02T06:40:24.805Z,1000.02
2018-01-02T06:41:24.797Z,1000.07
2018-01-02T06:42:24.785Z,1000.06
2018-01-02T06:43:24.772Z,1000.07
2018-01-02T06:44:24.767Z,1000.11
2018-01-02T06:45:24.751Z,1000.09
2018-01-02T06:46:24.741Z,1000.07
2018-01-02T06:47:24.734Z,1000.08
2018-01-02T06:48:24.720Z,1000.10
2018-01-02T06:49:24.709Z,1000.12
2018-01-02T06:50:24.705Z,1000.19
2018-01-02T06:51:25.701Z,1000.18
2018-01-02T06:52:24.690Z,1000.21
2018-01-02T06:53:24.677Z,1000.22
2018-01-02T06:54:24.693Z,1000.23
2018-01-02T06:55:24.645Z,1000.20
2018-01-02T06:56:24.639Z,1000.26
2018-01-02T06:57:24.623Z,1000.29
2018-01-02T06:58:24.618Z,1000.33
2018-01-02T06:59:24.604Z,1000.32
2018-01-02T07:00:25.192Z,1000.33
2018-01-02T07:01:24.586Z,1000.35
2018-01-02T07:02:24.625Z,1000.35
2018-01-02T07:03:25.191Z,1000.36
2018-01-02T07:04:24.548Z,1000.40
2018-01-02T07:05:24.566Z,1000.41
2018-01-02T07:06:24.533Z,1000.43
2018-01-02T07:07:24.519Z,1000.43
2018-01-02T07:08:24.506Z,1000.43
2018-01-02T07:09:25.191Z,1000.48
2018-01-02T07:10:24.495Z,1000.51
2018-01-02T07:11:24.486Z,1000.52
2018-01-02T07:12:24.490Z,1000.53
2018-01-02T07:13:24.449Z,1000.57
2018-01-02T07:14:24.457Z,1000.57
2018-01-02T07:15:24.474Z,1000.60
2018-01-02T07:16:24.422Z,1000.61
2018-01-02T07:17:24.423Z,1000.64
2018-01-02T07:18:24.401Z,1000.66
2018-01-02T07:19:24.482Z,1000.64
2018-01-02T07:20:26.182Z,1000.68
2018-01-02T07:21:25.194Z,1000.67
2018-01-02T07:22:24.362Z,1000.67
2018-01-02T07:23:24.380Z,1000.75
2018-01-02T07:24:24.368Z,1000.73
2018-01-02T07:25:24.330Z,1000.70
2018-01-02T07:26:24.313Z,1000.73
2018-01-02T07:27:25.184Z,1000.74
2018-01-02T07:28:24.296Z,1000.79
2018-01-02T07:29:24.311Z,1000.79
2018-01-02T07:30:24.272Z,1000.83
2018-01-02T07:31:24.260Z,1000.80
2018-01-02T07:32:24.259Z,1000.82
2018-01-02T07:33:24.245Z,1000.85
2018-01-02T07:34:24.244Z,1000.87
2018-01-02T07:35:24.222Z,1000.89
2018-01-02T07:36:24.206Z,1000.86
2018-01-02T07:37:24.211Z,1000.90
2018-01-02T07:38:24.203Z,1000.93
2018-01-02T07:39:24.183Z,1000.93
2018-01-02T07:40:24.166Z,1000.99
2018-01-02T07:41:24.157Z,1000.94
2018-01-02T07:42:24.142Z,1000.94
2018-01-02T07:43:24.134Z,1000.98
2018-01-02T07:44:24.122Z,1000.99
2018-01-02T07:45:24.117Z,1001.04
2018-01-02T07:46:24.106Z,1001.02
2018-01-02T07:47:24.090Z,1001.02
2018-01-02T07:48:24.081Z,1001.05
2018-01-02T07:49:24.067Z,1001.08
2018-01-02T07:50:24.059Z,1001.08
2018-01-02T07:51:24.055Z,1001.09
2018-01-02T07:52:24.040Z,1001.10
2018-01-02T07:53:24.029Z,1001.11
2018-01-02T07:54:24.021Z,1001.15
2018-01-02T07:55:24.008Z,1001.20
2018-01-02T07:56:23.998Z,1001.20
2018-01-02T07:57:23.989Z,1001.20
2018-01-02T07:58:23.975Z,1001.24
2018-01-02T07:59:23.965Z,1001.22
2018-01-02T08:00:23.989Z,1001.23
2018-01-02T08:01:23.953Z,1001.21
2018-01-02T08:02:23.948Z,1001.23
2018-01-02T08:03:23.925Z,1001.22
2018-01-02T08:04:23.911Z,1001.26
2018-01-02T08:05:23.904Z,1001.32
2018-01-02T08:06:23.892Z,1001.31
2018-01-02T08:07:23.888Z,1001.30
2018-01-02T08:08:23.882Z,1001.27
2018-01-02T08:09:23.876Z,1001.33
2018-01-02T08:10:23.855Z,1001.35
2018-01-02T08:11:23.838Z,1001.36
2018-01-02T08:12:23.828Z,1001.38
2018-01-02T08:13:23.814Z,1001.41
2018-01-02T08:14:23.807Z,1001.43
2018-01-02T08:15:23.795Z,1001.47
2018-01-02T08:16:23.783Z,1001.48
2018-01-02T08:17:23.778Z,1001.50
2018-01-02T08:18:23.764Z,1001.51
2018-01-02T08:19:23.756Z,1001.53
2018-01-02T08:20:23.742Z,1001.52
2018-01-02T08:21:23.737Z,1001.53
2018-01-02T08:22:23.723Z,1001.53
2018-01-02T08:23:23.729Z,1001.57
2018-01-02T08:24:23.701Z,1001.54
2018-01-02T08:25:23.701Z,1001.55
2018-01-02T08:26:23.712Z,1001.57
2018-01-02T08:27:23.678Z,1001.64
2018-01-02T08:28:23.663Z,1001.66
2018-01-02T08:29:23.657Z,1001.69
2018-01-02T08:30:23.646Z,1001.78
2018-01-02T08:31:23.649Z,1001.77
2018-01-02T08:32:23.626Z,1001.78
2018-01-02T08:33:23.634Z,1001.81
2018-01-02T08:34:23.597Z,1001.79
2018-01-02T08:35:23.591Z,1001.80
2018-01-02T08:36:23.577Z,1001.89
2018-01-02T08:37:23.574Z,1001.87
2018-01-02T08:38:23.556Z,1001.94
2018-01-02T08:39:23.551Z,1001.94
2018-01-02T08:40:23.540Z,1001.88
2018-01-02T08:41:23.521Z,1001.91
2018-01-02T08:42:23.517Z,1001.91
2018-01-02T08:43:23.504Z,1001.89
2018-01-02T08:44:23.497Z,1001.93
2018-01-02T08:45:23.488Z,1001.99
2018-01-02T08:46:23.474Z,1001.97
2018-01-02T08:47:23.463Z,1001.99
2018-01-02T08:48:23.452Z,1002.01
2018-01-02T08:49:23.439Z,1002.00
2018-01-02T08:50:23.475Z,1002.04
2018-01-02T08:51:23.422Z,1002.05
2018-01-02T08:52:23.426Z,1002.13
2018-01-02T08:53:23.400Z,1002.10
2018-01-02T08:54:23.394Z,1002.19
2018-01-02T08:55:23.380Z,1002.18
2018-01-02T08:56:23.368Z,1002.23
2018-01-02T08:57:23.364Z,1002.18
2018-01-02T08:58:23.355Z,1002.26
2018-01-02T08:59:23.344Z,1002.29
2018-01-02T09:00:23.327Z,1002.25
2018-01-02T09:01:23.316Z,1002.26
2018-01-02T09:02:23.303Z,1002.28
2018-01-02T09:03:23.319Z,1002.27
2018-01-02T09:04:23.296Z,1002.27
2018-01-02T09:05:23.286Z,1002.30
2018-01-02T09:06:23.277Z,1002.35
2018-01-02T09:07:23.295Z,1002.37
2018-01-02T09:08:23.244Z,1002.36
2018-01-02T09:09:23.236Z,1002.38
2018-01-02T09:10:23.223Z,1002.39
2018-01-02T09:11:23.213Z,1002.47
2018-01-02T09:12:23.208Z,1002.50
2018-01-02T09:13:23.223Z,1002.48
2018-01-02T09:14:23.189Z,1002.49
2018-01-02T09:15:23.183Z,1002.53
2018-01-02T09:16:23.166Z,1002.55
2018-01-02T09:17:23.150Z,1002.56
2018-01-02T09:18:23.161Z,1002.56
2018-01-02T09:19:23.145Z,1002.61
2018-01-02T09:20:23.120Z,1002.60
2018-01-02T09:21:23.130Z,1002.59
2018-01-02T09:22:23.124Z,1002.58
2018-01-02T09:23:23.095Z,1002.60
2018-01-02T09:24:23.077Z,1002.60
2018-01-02T09:25:23.069Z,1002.66
2018-01-02T09:26:23.065Z,1002.62
2018-01-02T09:27:23.050Z,1002.66
2018-01-02T09:28:23.041Z,1002.67
2018-01-02T09:29:23.030Z,1002.67
2018-01-02T09:30:23.017Z,1002.68
2018-01-02T09:31:23.006Z,1002.67
2018-01-02T09:32:23.002Z,1002.72
2018-01-02T09:33:22.990Z,1002.77
2018-01-02T09:34:22.974Z,1002.73
2018-01-02T09:35:22.971Z,1002.80
2018-01-02T09:36:22.961Z,1002.80
2018-01-02T09:37:22.963Z,1002.80
2018-01-02T09:38:22.939Z,1002.84
2018-01-02T09:39:22.930Z,1002.85
2018-01-02T09:40:22.921Z,1002.82
2018-01-02T09:41:22.910Z,1002.84
2018-01-02T09:42:22.919Z,1002.86
2018-01-02T09:43:22.887Z,1002.86
2018-01-02T09:44:22.879Z,1002.89
2018-01-02T09:45:22.867Z,1002.84
2018-01-02T09:46:22.869Z,1002.86
2018-01-02T09:47:22.858Z,1002.89
2018-01-02T09:48:22.856Z,1002.92
2018-01-02T09:49:22.827Z,1002.85
2018-01-02T09:50:22.817Z,1002.83
2018-01-02T09:51:22.822Z,1002.91
2018-01-02T09:52:22.802Z,1002.91
2018-01-02T09:53:22.784Z,1002.96
2018-01-02T09:54:22.775Z,1002.97
2018-01-02T09:55:22.772Z,1002.96
2018-01-02T09:56:22.758Z,1003.00
2018-01-02T09:57:22.746Z,1003.02
2018-01-02T09:58:22.739Z,1003.05
2018-01-02T09:59:22.729Z,1003.04
2018-01-02T10:00:22.718Z,1003.08
2018-01-02T10:01:22.705Z,1003.11
2018-01-02T10:02:22.712Z,1003.12
2018-01-02T10:03:22.685Z,1003.14
2018-01-02T10:04:22.686Z,1003.19
2018-01-02T10:05:22.669Z,1003.13
2018-01-02T10:06:22.657Z,1003.16
2018-01-02T10:07:22.645Z,1003.19
2018-01-02T10:08:23.203Z,1003.19
2018-01-02T10:09:22.652Z,1003.19
2018-01-02T10:10:22.626Z,1003.18
2018-01-02T10:11:22.612Z,1003.22
2018-01-02T10:12:22.596Z,1003.20
2018-01-02T10:13:22.597Z,1003.23
2018-01-02T10:14:22.581Z,1003.16
2018-01-02T10:15:22.588Z,1003.22
2018-01-02T10:16:22.555Z,1003.23
2018-01-02T10:17:22.549Z,1003.25
2018-01-02T10:18:22.538Z,1003.28
2018-01-02T10:19:22.530Z,1003.26
2018-01-02T10:20:23.214Z,1003.32
2018-01-02T10:21:22.531Z,1003.21
2018-01-02T10:22:22.513Z,1003.26
2018-01-02T10:23:22.502Z,1003.30
2018-01-02T10:24:22.485Z,1003.30
2018-01-02T10:25:22.470Z,1003.31
2018-01-02T10:26:22.458Z,1003.28
2018-01-02T10:27:22.451Z,1003.37
2018-01-02T10:28:22.436Z,1003.32
2018-01-02T10:29:22.427Z,1003.36
2018-01-02T10:30:22.421Z,1003.33
2018-01-02T10:31:22.406Z,1003.36
2018-01-02T10:32:22.413Z,1003.34
2018-01-02T10:33:22.387Z,1003.35
2018-01-02T10:34:22.374Z,1003.36
2018-01-02T10:35:22.418Z,1003.33
2018-01-02T10:36:22.366Z,1003.34
2018-01-02T10:37:22.365Z,1003.33
2018-01-02T10:38:22.373Z,1003.38
2018-01-02T10:39:22.328Z,1003.39
2018-01-02T10:40:22.319Z,1003.32
2018-01-02T10:41:22.314Z,1003.38
2018-01-02T10:42:22.298Z,1003.36
2018-01-02T10:43:22.287Z,1003.38
2018-01-02T10:44:22.292Z,1003.41
2018-01-02T10:45:22.267Z,1003.44
2018-01-02T10:46:22.260Z,1003.39
2018-01-02T10:47:22.251Z,1003.45
2018-01-02T10:48:22.241Z,1003.44
2018-01-02T10:49:22.241Z,1003.46
2018-01-02T10:50:22.233Z,1003.46
2018-01-02T10:51:22.208Z,1003.50
2018-01-02T10:52:22.201Z,1003.47
2018-01-02T10:53:22.192Z,1003.42
2018-01-02T10:54:22.186Z,1003.45
2018-01-02T10:55:22.177Z,1003.45
2018-01-02T10:56:22.160Z,1003.44
2018-01-02T10:57:22.152Z,1003.46
2018-01-02T10:58:22.139Z,1003.42
2018-01-02T10:59:22.139Z,1003.40
2018-01-02T11:00:22.140Z,1003.38
2018-01-02T11:01:22.134Z,1003.54
2018-01-02T11:02:22.098Z,1003.46
2018-01-02T11:03:22.096Z,1003.56
2018-01-02T11:04:22.079Z,1003.49
2018-01-02T11:05:22.086Z,1003.48
2018-01-02T11:06:22.090Z,1003.50
2018-01-02T11:07:22.075Z,1003.50
2018-01-02T11:08:22.052Z,1003.50
2018-01-02T11:09:22.040Z,1003.53
2018-01-02T11:10:22.041Z,1003.58
2018-01-02T11:11:22.013Z,1003.59
2018-01-02T11:12:22.003Z,1003.61
2018-01-02T11:13:21.998Z,1003.62
2018-01-02T11:14:22.032Z,1003.62
2018-01-02T11:15:21.981Z,1003.57
2018-01-02T11:16:21.964Z,1003.64
2018-01-02T11:17:21.954Z,1003.64
2018-01-02T11:18:21.954Z,1003.69
2018-01-02T11:19:21.941Z,1003.69
2018-01-02T11:20:21.927Z,1003.67
2018-01-02T11:21:21.916Z,1003.69
2018-01-02T11:22:21.904Z,1003.67
2018-01-02T11:23:21.900Z,1003.67
2018-01-02T11:24:21.886Z,1003.68
2018-01-02T11:25:21.876Z,1003.75
2018-01-02T11:26:21.870Z,1003.77
2018-01-02T11:27:21.858Z,1003.80
2018-01-02T11:28:21.858Z,1003.85
2018-01-02T11:29:21.836Z,1003.88
2018-01-02T11:30:21.828Z,1003.87
2018-01-02T11:31:21.817Z,1003.89
2018-01-02T11:32:21.809Z,1003.80
2018-01-02T11:33:21.798Z,1003.87
2018-01-02T11:34:21.791Z,1003.91
2018-01-02T11:35:21.806Z,1003.92
2018-01-02T11:36:21.772Z,1003.87
2018-01-02T11:37:21.772Z,1003.84
2018-01-02T11:38:21.750Z,1003.92
2018-01-02T11:39:21.747Z,1003.89
2018-01-02T11:40:21.733Z,1003.91
2018-01-02T11:41:21.732Z,1003.91
2018-01-02T11:42:21.730Z,1003.83
2018-01-02T11:43:21.706Z,1003.93
2018-01-02T11:44:21.691Z,1003.89
2018-01-02T11:45:21.684Z,1003.94
2018-01-02T11:46:21.670Z,1003.85
2018-01-02T11:47:21.660Z,1003.90
2018-01-02T11:48:21.651Z,1003.91
2018-01-02T11:49:21.634Z,1003.97
2018-01-02T11:50:21.634Z,1003.89
2018-01-02T11:51:21.618Z,1003.93
2018-01-02T11:52:21.610Z,1003.93
2018-01-02T11:53:21.606Z,1003.91
2018-01-02T11:54:21.585Z,1003.97
2018-01-02T11:55:21.581Z,1003.96
2018-01-02T11:56:21.572Z,1003.95
2018-01-02T11:57:21.558Z,1003.91
2018-01-02T11:58:21.551Z,1003.89
2018-01-02T11:59:21.542Z,1003.84
2018-01-02T12:00:21.533Z,1003.84
2018-01-02T12:01:21.530Z,1003.83
2018-01-02T12:02:21.509Z,1003.81
2018-01-02T12:03:21.505Z,1003.82
2018-01-02T12:04:21.499Z,1003.81
2018-01-02T12:05:21.480Z,1003.74
2018-01-02T12:06:21.467Z,1003.75
2018-01-02T12:07:21.464Z,1003.74
2018-01-02T12:08:21.453Z,1003.77
2018-01-02T12:09:21.441Z,1003.73
2018-01-02T12:10:21.441Z,1003.76
2018-01-02T12:11:21.423Z,1003.74
2018-01-02T12:12:21.412Z,1003.74
2018-01-02T12:13:21.405Z,1003.73
2018-01-02T12:14:21.393Z,1003.70
2018-01-02T12:15:21.392Z,1003.69
2018-01-02T12:16:21.381Z,1003.69
2018-01-02T12:17:21.375Z,1003.67
2018-01-02T12:18:21.365Z,1003.68
2018-01-02T12:19:21.350Z,1003.69
2018-01-02T12:20:21.335Z,1003.64
2018-01-02T12:21:21.323Z,1003.65